createdAt,value
2022-10-22T00:00:01.846Z,78.78652456813737
2022-10-22T00:15:02.487Z,80.13134711503774
2022-10-22T00:30:02.160Z,80.3826357217893
2022-10-22T00:45:01.854Z,79.62840672826647
2022-10-22T01:00:02.470Z,79.42965382811227
2022-10-22T01:15:02.152Z,79.21671145140085
2022-10-22T01:30:01.818Z,79.16559878119675
2022-10-22T01:45:02.462Z,79.5761933674121
2022-10-22T02:00:02.078Z,80.14279273802629
2022-10-22T02:15:01.766Z,80.03582131086833
2022-10-22T02:30:02.503Z,79.56282110329018
2022-10-22T02:45:02.213Z,81.44969050815882
2022-10-22T03:00:01.898Z,81.85211648027477
2022-10-22T03:15:02.530Z,80.12016941050923
2022-10-22T03:30:02.213Z,79.74522427640369
2022-10-22T03:45:01.894Z,79.43042514076834
2022-10-22T04:00:02.567Z,79.28522280887722
2022-10-22T04:15:02.182Z,80.56555451246412
2022-10-22T04:30:02.427Z,79.68809644408068
2022-10-22T04:45:02.117Z,81.05989565781118
2022-10-22T05:00:01.776Z,79.96723002343927
2022-10-22T05:15:02.425Z,79.65180249212169
2022-10-22T05:30:02.066Z,79.44988240224397
2022-10-22T05:45:01.749Z,79.97281316194791
2022-10-22T06:00:02.382Z,79.17818334776324
2022-10-22T06:15:02.075Z,79.06859362707021
2022-10-22T06:30:01.782Z,79.95121142662563
2022-10-22T07:00:02.065Z,79.10588592046628
2022-10-22T07:15:01.786Z,79.22566843000284
2022-10-22T07:30:02.479Z,79.39370264606058
2022-10-22T07:45:02.205Z,79.74390935555196
2022-10-22T08:00:01.863Z,82.70768482546161
2022-10-22T08:15:02.507Z,85.23661336158189
2022-10-22T08:30:02.165Z,89.97380152112669
2022-10-22T08:45:01.837Z,90.92644854111495
2022-10-22T09:00:02.451Z,90.9943233682085
2022-10-22T09:15:02.112Z,89.05302103530494
2022-10-22T09:30:01.798Z,88.71079615101743
2022-10-22T09:45:02.441Z,87.54475097325042
2022-10-22T10:00:02.080Z,85.8393210958932
2022-10-22T10:15:01.762Z,84.99719128883548
2022-10-22T10:30:02.420Z,82.91617049163945
2022-10-22T10:45:02.112Z,81.29141332613624
2022-10-22T11:00:01.789Z,79.18010487013451
2022-10-22T11:15:02.433Z,79.26451399434661
2022-10-22T11:30:02.078Z,78.4625974740761
2022-10-22T11:45:01.762Z,77.42592888539694
2022-10-22T12:00:02.422Z,76.75263678820556
2022-10-22T12:15:02.069Z,75.20868066204089
2022-10-22T12:30:01.777Z,74.72597036839885
2022-10-22T12:45:02.420Z,74.56002463360014
2022-10-22T13:00:02.140Z,74.02728276130148
2022-10-22T13:15:01.822Z,74.20436918277173
2022-10-22T13:30:02.563Z,74.79840270669229
2022-10-22T13:45:02.212Z,75.95528493742745
2022-10-22T14:00:01.914Z,76.63420287896469
2022-10-22T14:15:01.792Z,76.49863851456035
2022-10-22T14:30:02.583Z,76.36663148776984
2022-10-22T14:45:02.284Z,76.30931461955255
2022-10-22T15:00:02.014Z,76.6868750334342
2022-10-22T15:15:01.724Z,76.69366445386213
2022-10-22T15:45:02.052Z,76.61288814742824
2022-10-22T16:00:01.742Z,76.57910391893425
2022-10-22T16:15:02.452Z,76.60569824162397
2022-10-22T16:30:02.116Z,76.7339634881878
2022-10-22T16:45:01.926Z,76.87611921396382
2022-10-22T17:00:01.653Z,76.84891996989543
2022-10-22T17:15:02.299Z,76.92454376391979
2022-10-22T17:30:01.976Z,77.04314504285924
2022-10-22T17:45:01.656Z,77.0620991106918
2022-10-22T18:00:02.313Z,77.27522145115721
2022-10-22T18:15:01.981Z,77.14786383879162
2022-10-22T18:30:01.710Z,77.10996977481093
2022-10-22T18:45:02.415Z,77.17454269933867
2022-10-22T19:00:02.062Z,77.20949921477191
2022-10-22T19:15:01.747Z,77.80964421185558
2022-10-22T19:30:02.393Z,77.75482907431476
2022-10-22T19:45:02.139Z,78.13010593332004
2022-10-22T20:00:01.783Z,78.12079038279744
2022-10-22T20:15:02.456Z,77.68972548536064
2022-10-22T20:30:02.244Z,77.89314369044449
2022-10-22T20:45:01.985Z,77.48053150653165
2022-10-22T21:00:01.639Z,77.29292065248463
2022-10-22T21:15:02.344Z,77.63966525042082
2022-10-22T21:30:02.147Z,78.8647219018947
2022-10-22T21:45:01.847Z,77.45530225147468
2022-10-22T22:00:02.714Z,77.08169169317284
2022-10-22T22:15:02.392Z,77.8640830581338
2022-10-22T22:30:02.081Z,78.2514982183137
2022-10-22T22:45:01.759Z,77.62667049871835
2022-10-22T23:00:02.435Z,77.14388252487049
2022-10-22T23:15:02.124Z,77.84793147221934
2022-10-22T23:30:01.845Z,77.00524103002869
2022-10-22T23:45:02.486Z,79.00744261295797
